Terminal Aerodrome Forecast
Issued by NWS

Home | Current Version | Previous Version | Text Only | Print | Product List | Glossary On
Versions: 1 2 3 4 5 6 7 8 9 10 11 12 13 14 15 16 17 18 19 20 21 22 23 24 25 26 27 28 29 30 31 32 33 34 35 36 37
235
FTUS43 KLSX 291254 AAA
TAFUIN
TAF AMD
KUIN 291254Z 2913/3012 03010KT P6SM BKN015
      TEMPO 2913/2915 5SM BR BKN008
     FM291800 08008KT P6SM SCT120
     FM300600 08010KT P6SM VCSH BKN030
     FM300900 09015KT 6SM -SHRA VCTS BKN025CB=

USA.gov is the U.S. government's official web portal to all federal, state and local government web resources and services.